Terminal Aerodrome Forecast
Issued by NWS

Home | Current Version | Previous Version | Text Only | Print | Product List | Glossary On
Versions: 1 2 3 4 5 6 7 8 9 10 11 12 13 14
000
FTUS46 KLOX 222357
TAFSBA
TAF
KSBA 222357Z 2300/2324 23008KT P6SM SKC
     FM230300 VRB03KT P6SM SKC
     FM230700 09003KT 6SM BR SCT004
     FM231300 00000KT 1/2SM FG OVC002
     FM231500 VRB03KT 4SM BR BKN004
     FM231700 17005KT 6SM BR SCT007
     FM232200 23008KT P6SM SKC=

USA.gov is the U.S. government's official web portal to all federal, state and local government web resources and services.